createdAt,value
2022-12-15T00:01:59.897Z,8.02
2022-12-15T00:05:04.229Z,9.05
2022-12-15T00:08:08.464Z,8.07
2022-12-15T00:11:12.375Z,8.52
2022-12-15T00:14:16.602Z,8.15
2022-12-15T00:17:20.340Z,7.60
2022-12-15T00:20:24.870Z,7.10
2022-12-15T00:23:30.759Z,7.60
2022-12-15T00:26:35.124Z,7.18
2022-12-15T00:29:39.261Z,8.13
2022-12-15T00:32:43.570Z,7.88
2022-12-15T00:35:47.514Z,7.53
2022-12-15T00:38:43.188Z,7.30
2022-12-15T00:41:28.400Z,7.07
2022-12-15T00:44:18.928Z,6.75
2022-12-15T00:47:06.663Z,6.55
2022-12-15T00:50:11.106Z,6.55
2022-12-15T00:53:15.198Z,6.60
2022-12-15T00:56:19.599Z,6.13
2022-12-15T00:59:23.647Z,6.45
2022-12-15T01:02:27.904Z,6.20
2022-12-15T01:05:31.790Z,6.47
2022-12-15T01:08:35.943Z,6.78
2022-12-15T01:11:39.619Z,6.72
2022-12-15T01:14:44.427Z,6.68
2022-12-15T01:17:48.180Z,6.22
2022-12-15T01:20:34.472Z,6.47
2022-12-15T01:23:20.091Z,6.75
2022-12-15T01:26:06.983Z,6.63
2022-12-15T01:28:52.443Z,6.03
2022-12-15T01:31:37.987Z,6.50
2022-12-15T01:34:23.664Z,6.50
2022-12-15T01:37:09.025Z,6.63
2022-12-15T01:40:13.133Z,6.78
2022-12-15T01:42:58.980Z,6.18
2022-12-15T01:46:13.812Z,6.32
2022-12-15T01:49:16.224Z,6.22
2022-12-15T01:52:05.939Z,6.78
2022-12-15T01:54:55.576Z,6.35
2022-12-15T01:57:41.332Z,6.78
2022-12-15T02:00:27.102Z,6.40
2022-12-15T02:03:14.818Z,6.07
2022-12-15T02:06:01.396Z,5.85
2022-12-15T02:08:49.168Z,6.25
2022-12-15T02:11:59.487Z,5.32
2022-12-15T02:15:04.439Z,5.68
2022-12-15T02:18:18.139Z,5.53
2022-12-15T02:21:24.531Z,5.32
2022-12-15T02:24:49.689Z,5.88
2022-12-15T02:28:04.923Z,5.82
2022-12-15T02:31:13.198Z,6.13
2022-12-15T02:34:26.547Z,6.32
2022-12-15T02:37:22.623Z,6.60
2022-12-15T02:40:10.539Z,6.90
2022-12-15T02:42:58.490Z,6.30
2022-12-15T02:45:57.606Z,6.97
2022-12-15T02:48:53.483Z,7.15
2022-12-15T02:52:01.035Z,6.60
2022-12-15T02:55:08.642Z,6.10
2022-12-15T02:58:24.231Z,5.90
2022-12-15T03:01:34.270Z,5.32
2022-12-15T03:04:20.155Z,5.10
2022-12-15T03:07:09.632Z,4.93
2022-12-15T03:10:00.779Z,4.85
2022-12-15T03:12:46.035Z,5.20
2022-12-15T03:15:35.482Z,5.18
2022-12-15T03:18:21.613Z,5.07
2022-12-15T03:21:08.732Z,5.13
2022-12-15T03:23:54.065Z,5.65
2022-12-15T03:26:39.423Z,5.22
2022-12-15T03:29:25.118Z,5.28
2022-12-15T03:32:10.471Z,6.05
2022-12-15T03:34:56.182Z,6.45
2022-12-15T03:37:42.799Z,5.75
2022-12-15T03:40:28.178Z,5.55
2022-12-15T03:43:13.630Z,5.60
2022-12-15T03:45:59.371Z,5.38
2022-12-15T03:48:44.883Z,6.05
2022-12-15T03:51:30.531Z,5.60
2022-12-15T03:54:15.926Z,6.00
2022-12-15T03:57:01.520Z,5.90
2022-12-15T03:59:47.318Z,5.60
2022-12-15T04:02:32.624Z,5.07
2022-12-15T04:05:30.662Z,5.53
2022-12-15T04:08:15.836Z,4.95
2022-12-15T04:11:01.407Z,5.40
2022-12-15T04:13:47.015Z,5.47
2022-12-15T04:16:32.214Z,4.93
2022-12-15T04:19:36.263Z,4.72
2022-12-15T04:22:21.362Z,4.80
2022-12-15T04:25:27.376Z,4.82
2022-12-15T04:28:32.136Z,5.07
2022-12-15T04:31:46.327Z,4.55
2022-12-15T04:34:49.975Z,4.75
2022-12-15T04:37:54.148Z,4.80
2022-12-15T04:40:57.620Z,4.90
2022-12-15T04:44:01.518Z,5.50
2022-12-15T04:47:05.269Z,5.43
2022-12-15T04:50:09.455Z,5.30
2022-12-15T04:53:13.148Z,5.00
2022-12-15T04:56:18.798Z,5.63
2022-12-15T04:59:23.483Z,6.20
2022-12-15T05:02:27.746Z,5.68
2022-12-15T05:05:31.680Z,6.10
2022-12-15T05:08:35.680Z,5.88
2022-12-15T05:11:39.358Z,5.82
2022-12-15T05:14:43.299Z,5.88
2022-12-15T05:17:48.367Z,5.90
2022-12-15T05:20:53.049Z,5.55
2022-12-15T05:23:56.795Z,5.75
2022-12-15T05:27:00.811Z,5.68
2022-12-15T05:30:04.556Z,5.95
2022-12-15T05:32:50.100Z,5.40
2022-12-15T05:35:35.431Z,5.32
2022-12-15T05:38:20.807Z,5.50
2022-12-15T05:41:06.173Z,5.75
2022-12-15T05:43:51.690Z,5.40
2022-12-15T05:46:37.603Z,5.38
2022-12-15T05:49:26.015Z,5.32
2022-12-15T05:52:11.108Z,5.50
2022-12-15T05:54:56.668Z,6.10
2022-12-15T05:57:42.062Z,6.07
2022-12-15T06:00:27.563Z,6.40
2022-12-15T06:03:13.041Z,6.43
2022-12-15T06:06:00.156Z,5.90
2022-12-15T06:08:45.592Z,6.32
2022-12-15T06:11:35.651Z,5.68
2022-12-15T06:14:21.064Z,6.50
2022-12-15T06:17:06.699Z,6.03
2022-12-15T06:19:52.107Z,6.15
2022-12-15T06:22:37.566Z,5.30
2022-12-15T06:25:23.138Z,4.85
2022-12-15T06:28:08.468Z,5.20
2022-12-15T06:30:55.755Z,5.00
2022-12-15T06:33:41.741Z,5.13
2022-12-15T06:36:28.454Z,5.72
2022-12-15T06:39:15.300Z,4.95
2022-12-15T06:42:00.524Z,5.60
2022-12-15T06:44:45.824Z,5.32
2022-12-15T06:47:31.270Z,5.32
2022-12-15T06:50:16.753Z,5.10
2022-12-15T06:53:02.273Z,5.20
2022-12-15T06:55:48.107Z,4.80
2022-12-15T06:58:34.374Z,5.13
2022-12-15T07:01:21.585Z,5.45
2022-12-15T07:04:06.903Z,5.80
2022-12-15T07:06:52.313Z,5.60
2022-12-15T07:09:37.840Z,5.60
2022-12-15T07:12:23.283Z,5.75
2022-12-15T07:15:09.135Z,5.50
2022-12-15T07:17:57.390Z,5.47
2022-12-15T07:20:43.202Z,5.57
2022-12-15T07:23:46.257Z,5.22
2022-12-15T07:26:34.615Z,5.53
2022-12-15T07:29:23.438Z,4.82
2022-12-15T07:32:08.968Z,5.30
2022-12-15T07:34:54.573Z,5.70
2022-12-15T07:37:41.041Z,5.95
2022-12-15T08:12:05.228Z,6.13
2022-12-15T08:14:50.679Z,6.07
2022-12-15T08:17:36.047Z,5.63
2022-12-15T08:20:21.454Z,5.70
2022-12-15T08:23:06.864Z,6.10
2022-12-15T08:25:52.549Z,5.78
2022-12-15T08:28:39.320Z,6.05
2022-12-15T08:31:24.680Z,5.97
2022-12-15T08:34:10.876Z,5.65
2022-12-15T08:36:56.026Z,6.32
2022-12-15T08:39:42.494Z,6.43
2022-12-15T08:42:27.815Z,6.68
2022-12-15T08:45:13.529Z,6.75
2022-12-15T08:47:58.812Z,6.60
2022-12-15T08:50:45.785Z,6.72
2022-12-15T08:53:32.180Z,5.85
2022-12-15T08:56:20.216Z,6.10
2022-12-15T08:59:05.581Z,6.13
2022-12-15T09:01:51.068Z,5.45
2022-12-15T09:04:36.388Z,6.00
2022-12-15T09:07:22.368Z,6.30
2022-12-15T09:10:07.903Z,5.85
2022-12-15T09:12:53.426Z,5.57
2022-12-15T09:16:08.361Z,5.65
2022-12-15T09:18:50.711Z,5.32
2022-12-15T09:21:35.941Z,5.70
2022-12-15T09:24:32.286Z,5.30
2022-12-15T09:27:19.515Z,5.05
2022-12-15T09:30:05.248Z,5.28
2022-12-15T09:32:50.309Z,5.20
2022-12-15T09:35:35.687Z,5.30
2022-12-15T09:38:21.575Z,5.47
2022-12-15T09:41:15.718Z,5.68
2022-12-15T09:44:15.598Z,5.22
2022-12-15T09:47:20.232Z,5.10
2022-12-15T09:50:16.638Z,4.70
2022-12-15T09:53:04.134Z,5.70
2022-12-15T09:55:57.271Z,5.25
2022-12-15T09:58:52.986Z,5.55
2022-12-15T10:01:49.340Z,6.10
2022-12-15T10:05:16.306Z,5.72
2022-12-15T10:08:34.052Z,6.50
2022-12-15T10:11:40.807Z,6.22
2022-12-15T10:14:51.119Z,6.35
2022-12-15T10:18:04.783Z,5.88
2022-12-15T10:20:53.967Z,6.30
2022-12-15T10:23:40.389Z,6.55
2022-12-15T10:26:31.761Z,5.90
2022-12-15T10:29:40.315Z,6.20
2022-12-15T10:32:43.035Z,5.00
2022-12-15T10:35:34.523Z,4.70
2022-12-15T10:38:34.305Z,4.63
2022-12-15T10:41:21.900Z,4.55
2022-12-15T10:44:30.278Z,4.78
2022-12-15T10:47:26.208Z,4.70
2022-12-15T10:50:25.358Z,4.65
2022-12-15T10:53:40.035Z,5.00
2022-12-15T10:59:36.355Z,5.88
2022-12-15T11:02:25.532Z,5.78
2022-12-15T11:05:15.988Z,6.68
2022-12-15T11:08:16.845Z,6.05
2022-12-15T11:11:26.043Z,5.97
2022-12-15T11:14:15.696Z,5.47
2022-12-15T11:17:00.963Z,5.60
2022-12-15T11:19:46.336Z,5.80
2022-12-15T11:22:46.527Z,5.32
2022-12-15T11:25:50.819Z,5.20
2022-12-15T11:31:34.109Z,4.70
2022-12-15T11:34:36.942Z,4.68
2022-12-15T11:37:36.772Z,4.63
2022-12-15T11:40:42.485Z,4.50
2022-12-15T11:43:51.120Z,4.50
2022-12-15T11:46:58.688Z,5.32
2022-12-15T11:50:05.244Z,5.20
2022-12-15T11:53:02.052Z,5.47
2022-12-15T11:56:06.767Z,5.47
2022-12-15T11:59:16.063Z,5.85
2022-12-15T12:02:32.143Z,5.82
2022-12-15T12:05:25.380Z,6.22
2022-12-15T12:08:16.974Z,6.03
2022-12-15T12:12:13.387Z,6.55
2022-12-15T12:15:13.562Z,6.93
2022-12-15T12:18:07.528Z,6.30
2022-12-15T12:21:01.780Z,7.28
2022-12-15T12:24:02.796Z,6.90
2022-12-15T12:27:19.612Z,6.63
2022-12-15T12:30:14.850Z,7.28
2022-12-15T12:33:25.108Z,7.22
2022-12-15T12:36:12.919Z,7.63
2022-12-15T12:38:59.066Z,6.80
2022-12-15T12:41:57.652Z,6.82
2022-12-15T12:44:42.903Z,6.78
2022-12-15T12:47:35.986Z,7.13
2022-12-15T12:50:25.122Z,8.05
2022-12-15T12:53:32.141Z,7.38
2022-12-15T12:56:39.225Z,7.20
2022-12-15T12:59:31.028Z,6.57
2022-12-15T13:02:24.981Z,6.20
2022-12-15T13:05:30.773Z,5.95
2022-12-15T13:08:17.382Z,5.90
2022-12-15T13:11:57.976Z,5.55
2022-12-15T13:14:46.679Z,5.03
2022-12-15T13:17:40.650Z,5.55
2022-12-15T13:20:32.038Z,5.30
2022-12-15T13:23:20.111Z,4.85
2022-12-15T13:26:05.110Z,4.95
2022-12-15T13:28:51.447Z,4.78
2022-12-15T13:31:52.761Z,4.72
2022-12-15T13:34:41.347Z,4.68
2022-12-15T13:37:45.056Z,4.47
2022-12-15T13:40:33.803Z,4.50
2022-12-15T13:43:29.230Z,4.18
2022-12-15T13:46:25.975Z,4.13
2022-12-15T13:49:22.595Z,3.90
2022-12-15T13:52:38.174Z,4.30
2022-12-15T13:55:37.146Z,4.40
2022-12-15T13:58:24.702Z,3.75
2022-12-15T14:04:36.606Z,4.03
2022-12-15T14:07:22.285Z,3.58
2022-12-15T14:10:17.686Z,3.88
2022-12-15T14:13:16.132Z,4.03
2022-12-15T14:16:18.947Z,4.15
2022-12-15T14:19:17.118Z,4.18
2022-12-15T14:22:02.579Z,4.80
2022-12-15T14:24:49.223Z,4.72
2022-12-15T14:27:34.923Z,4.63
2022-12-15T14:30:29.395Z,5.25
2022-12-15T14:33:17.753Z,4.78
2022-12-15T14:36:08.183Z,5.30
2022-12-15T14:38:56.861Z,5.55
2022-12-15T14:44:57.415Z,5.80
2022-12-15T14:48:13.684Z,6.10
2022-12-15T14:51:00.569Z,5.47
2022-12-15T14:53:49.720Z,5.47
2022-12-15T14:59:23.671Z,4.82
2022-12-15T15:02:09.291Z,5.20
2022-12-15T15:03:04.592Z,5.15
2022-12-15T15:03:05.769Z,3.80
2022-12-15T15:03:15.361Z,5.63
2022-12-15T15:05:04.796Z,4.93
2022-12-15T15:07:55.778Z,4.70
2022-12-15T15:10:42.204Z,4.80
2022-12-15T15:13:39.735Z,4.90
2022-12-15T15:16:26.136Z,4.30
2022-12-15T15:19:21.052Z,3.95
2022-12-15T15:22:25.634Z,4.20
2022-12-15T15:25:28.479Z,4.18
2022-12-15T15:28:19.590Z,3.63
2022-12-15T15:31:41.023Z,3.72
2022-12-15T15:34:27.275Z,3.80
2022-12-15T15:37:26.125Z,3.60
2022-12-15T15:40:13.586Z,3.42
2022-12-15T15:42:59.875Z,3.25
2022-12-15T15:45:46.280Z,3.30
2022-12-15T15:48:36.404Z,3.38
2022-12-15T15:51:24.307Z,3.40
2022-12-15T15:54:15.364Z,3.20
2022-12-15T15:57:01.066Z,3.92
2022-12-15T15:59:46.944Z,3.95
2022-12-15T16:02:32.404Z,3.58
2022-12-15T16:05:18.098Z,3.63
2022-12-15T16:08:04.404Z,4.50
2022-12-15T16:10:50.289Z,4.22
2022-12-15T16:13:35.577Z,4.47
2022-12-15T16:16:31.924Z,4.03
2022-12-15T16:19:17.611Z,4.18
2022-12-15T16:22:02.967Z,3.95
2022-12-15T16:24:48.872Z,3.92
2022-12-15T16:27:34.225Z,4.53
2022-12-15T16:30:26.041Z,4.30
2022-12-15T16:33:12.269Z,4.50
2022-12-15T16:35:57.807Z,4.75
2022-12-15T16:38:43.063Z,5.05
2022-12-15T16:41:28.628Z,4.90
2022-12-15T16:44:14.089Z,5.05
2022-12-15T16:46:59.820Z,4.45
2022-12-15T16:49:45.376Z,4.35
2022-12-15T16:52:30.830Z,4.47
2022-12-15T16:55:25.353Z,4.40
2022-12-15T16:58:17.324Z,4.10
2022-12-15T17:01:03.780Z,3.67
2022-12-15T17:03:49.266Z,3.60
2022-12-15T17:06:34.699Z,3.70
2022-12-15T17:09:25.489Z,4.10
2022-12-15T17:12:17.438Z,3.90
2022-12-15T17:15:03.885Z,3.58
2022-12-15T17:17:49.432Z,4.03
2022-12-15T17:20:34.915Z,3.70
2022-12-15T17:23:22.965Z,3.97
2022-12-15T17:26:29.557Z,3.75
2022-12-15T17:29:21.257Z,3.40
2022-12-15T17:32:12.573Z,4.10
2022-12-15T17:34:57.941Z,4.00
2022-12-15T17:37:44.808Z,3.47
2022-12-15T17:40:30.039Z,3.70
2022-12-15T17:43:33.637Z,3.83
2022-12-15T17:46:21.036Z,3.65
2022-12-15T17:49:06.514Z,3.58
2022-12-15T17:51:52.014Z,3.58
2022-12-15T17:54:37.473Z,2.97
2022-12-15T17:57:23.076Z,2.92
2022-12-15T18:00:16.068Z,3.58
2022-12-15T18:03:01.515Z,3.40
2022-12-15T18:05:49.403Z,3.03
2022-12-15T18:08:34.863Z,3.67
2022-12-15T18:11:19.904Z,4.05
2022-12-15T18:14:13.808Z,4.18
2022-12-15T18:16:58.883Z,3.45
2022-12-15T18:19:44.890Z,4.28
2022-12-15T18:22:30.435Z,4.32
2022-12-15T18:25:27.223Z,3.95
2022-12-15T18:28:30.071Z,3.63
2022-12-15T18:31:20.796Z,4.45
2022-12-15T18:34:12.810Z,4.50
2022-12-15T18:36:57.985Z,4.63
2022-12-15T18:39:43.679Z,4.90
2022-12-15T18:42:29.055Z,4.75
2022-12-15T18:45:20.746Z,5.45
2022-12-15T18:48:15.776Z,6.20
2022-12-15T18:51:02.604Z,6.35
2022-12-15T18:53:49.024Z,6.05
2022-12-15T18:56:34.396Z,6.00
2022-12-15T18:59:19.962Z,6.00
2022-12-15T19:02:05.377Z,6.35
2022-12-15T19:04:50.622Z,5.88
2022-12-15T19:07:36.478Z,6.68
2022-12-15T19:10:21.667Z,6.38
2022-12-15T19:13:13.748Z,6.43
2022-12-15T19:16:01.217Z,6.32
2022-12-15T19:19:05.013Z,7.15
2022-12-15T19:22:08.628Z,7.38
2022-12-15T19:24:54.009Z,7.65
2022-12-15T19:27:39.555Z,7.18
2022-12-15T19:30:27.199Z,7.25
2022-12-15T19:33:14.268Z,6.85
2022-12-15T19:35:59.556Z,7.97
2022-12-15T19:38:46.226Z,7.30
2022-12-15T19:41:38.163Z,7.65
2022-12-15T19:44:23.515Z,8.02
2022-12-15T19:47:15.131Z,8.30
2022-12-15T19:50:00.829Z,8.10
2022-12-15T19:52:49.130Z,7.60
2022-12-15T19:55:36.061Z,8.15
2022-12-15T19:58:33.395Z,7.97
2022-12-15T20:01:21.132Z,7.43
2022-12-15T20:04:07.079Z,8.30
2022-12-15T20:06:52.264Z,8.38
2022-12-15T20:09:38.099Z,9.23
2022-12-15T20:12:23.671Z,8.90
2022-12-15T20:15:18.113Z,9.23
2022-12-15T20:18:03.780Z,9.20
2022-12-15T20:20:50.867Z,9.57
2022-12-15T20:24:00.361Z,9.65
2022-12-15T20:26:46.603Z,8.98
2022-12-15T20:29:32.292Z,9.52
2022-12-15T20:32:20.270Z,9.95
2022-12-15T20:35:06.067Z,10.43
2022-12-15T20:37:52.856Z,10.43
2022-12-15T20:40:38.326Z,9.80
2022-12-15T20:43:25.853Z,9.57
2022-12-15T20:46:18.846Z,9.65
2022-12-15T20:49:09.296Z,10.18
2022-12-15T20:51:54.736Z,9.68
2022-12-15T20:54:40.300Z,10.35
2022-12-15T20:57:25.697Z,11.13
2022-12-15T21:00:13.210Z,10.95
2022-12-15T21:02:58.852Z,10.85
2022-12-15T21:05:43.905Z,10.57
2022-12-15T21:08:31.415Z,11.23
2022-12-15T21:11:20.979Z,11.73
2022-12-15T21:14:16.134Z,12.02
2022-12-15T21:17:01.199Z,11.98
2022-12-15T21:19:46.582Z,11.80
2022-12-15T21:22:32.255Z,11.48
2022-12-15T21:25:26.366Z,12.25
2022-12-15T21:28:11.959Z,12.38
2022-12-15T21:30:56.888Z,12.30
2022-12-15T21:33:43.115Z,11.77
2022-12-15T21:36:28.466Z,11.20
2022-12-15T21:39:24.689Z,11.55
2022-12-15T21:42:17.006Z,11.20
2022-12-15T21:45:02.080Z,11.87
2022-12-15T21:48:07.037Z,11.82
2022-12-15T21:50:52.774Z,13.25
2022-12-15T21:53:38.293Z,12.85
2022-12-15T21:56:23.867Z,13.02
2022-12-15T21:59:18.871Z,12.75
2022-12-15T22:02:25.733Z,11.77
2022-12-15T22:05:30.079Z,10.70
2022-12-15T22:08:20.776Z,9.95
2022-12-15T22:11:16.033Z,8.43
2022-12-15T22:14:03.379Z,7.55
2022-12-15T22:16:48.300Z,6.20
2022-12-15T22:19:33.818Z,6.15
2022-12-15T22:22:19.150Z,6.25
2022-12-15T22:25:05.087Z,5.82
2022-12-15T22:27:51.733Z,5.05
2022-12-15T22:30:38.476Z,5.28
2022-12-15T22:33:25.764Z,5.07
2022-12-15T22:36:11.248Z,4.30
2022-12-15T22:38:56.379Z,3.97
2022-12-15T22:41:44.981Z,3.38
2022-12-15T22:44:37.151Z,3.83
2022-12-15T22:47:22.727Z,3.20
2022-12-15T22:50:13.926Z,3.35
2022-12-15T22:53:00.274Z,2.83
2022-12-15T22:55:48.535Z,2.97
2022-12-15T22:58:44.035Z,3.13
2022-12-15T23:01:29.880Z,2.95
2022-12-15T23:04:15.515Z,2.72
2022-12-15T23:07:03.344Z,2.55
2022-12-15T23:09:48.594Z,3.38
2022-12-15T23:12:33.996Z,3.00
2022-12-15T23:15:38.810Z,2.53
2022-12-15T23:18:24.237Z,2.08
2022-12-15T23:21:09.765Z,2.10
2022-12-15T23:23:55.127Z,2.10
2022-12-15T23:26:40.961Z,1.83
2022-12-15T23:29:26.721Z,1.88
2022-12-15T23:32:12.007Z,1.80
2022-12-15T23:34:57.509Z,1.55
2022-12-15T23:37:43.029Z,1.60
2022-12-15T23:40:28.561Z,1.90
2022-12-15T23:43:14.273Z,1.67
2022-12-15T23:46:02.115Z,1.27
2022-12-15T23:48:47.825Z,1.45
2022-12-15T23:51:33.241Z,1.42
2022-12-15T23:54:18.798Z,1.40
2022-12-15T23:57:04.565Z,1.10
2022-12-15T23:59:50.169Z,0.95
